| time (UTC) | temp F | wind direction | speed knots | gust knots | rain 1hr in | rain 24hr in | rain mn in | humidity % | barometer mb |
| 20260506182517 | 63 | 225 | 0.9 | 3.5 | 0.01 | 0.01 | 0.01 | 89 | 1005.0 |
| 20260506181517 | 62 | 0.0 | 0.0 | 0.01 | 0.01 | 0.01 | 88 | 1005.0 | |
| 20260506180517 | 62 | 225 | 0.9 | 4.3 | 0.00 | 0.00 | 0.00 | 86 | 1005.5 |
| 20260506175516 | 63 | 0.0 | 1.7 | 0.00 | 0.00 | 0.00 | 85 | 1005.6 | |
| 20260506174516 | 63 | 225 | 0.9 | 4.3 | 0.00 | 0.00 | 0.00 | 83 | 1005.6 |
| 20260506173516 | 64 | 225 | 1.7 | 4.3 | 0.00 | 0.00 | 0.00 | 83 | 1005.7 |
| 20260506172517 | 64 | 225 | 0.9 | 4.3 | 0.00 | 0.00 | 0.00 | 83 | 1005.8 |
| 20260506171516 | 64 | 225 | 0.9 | 4.3 | 0.00 | 0.00 | 0.00 | 83 | 1005.8 |
| 20260506170518 | 63 | 225 | 0.9 | 5.2 | 0.00 | 0.00 | 0.00 | 81 | 1005.9 |
| 20260506165516 | 63 | 225 | 2.6 | 6.1 | 0.00 | 0.00 | 0.00 | 80 | 1006.4 |
| 20260506164516 | 63 | 225 | 0.9 | 6.1 | 0.00 | 0.00 | 0.00 | 80 | 1006.4 |
| 20260506163536 | 63 | 203 | 3.5 | 7.0 | 0.00 | 0.00 | 0.00 | 79 | 1006.8 |
| 20260506162516 | 63 | 180 | 1.7 | 5.2 | 0.00 | 0.00 | 0.00 | 78 | 1006.8 |
| 20260506161516 | 63 | 225 | 3.5 | 9.6 | 0.00 | 0.00 | 0.00 | 78 | 1006.8 |
| 20260506160536 | 64 | 203 | 1.7 | 4.3 | 0.00 | 0.00 | 0.00 | 78 | 1006.9 |
| 20260506155516 | 64 | 225 | 2.6 | 8.7 | 0.00 | 0.00 | 0.00 | 77 | 1007.0 |
| 20260506154517 | 64 | 203 | 3.5 | 8.7 | 0.00 | 0.00 | 0.00 | 76 | 1007.0 |
| 20260506153516 | 66 | 225 | 1.7 | 6.1 | 0.00 | 0.00 | 0.00 | 75 | 1007.1 |
| 20260506152536 | 66 | 203 | 1.7 | 7.0 | 0.00 | 0.00 | 0.00 | 74 | 1007.0 |
| 20260506151616 | 66 | 203 | 1.7 | 5.2 | 0.00 | 0.00 | 0.00 | 73 | 1007.0 |
| 20260506150516 | 66 | 203 | 1.7 | 7.0 | 0.00 | 0.00 | 0.00 | 73 | 1007.0 |
| 20260506145516 | 66 | 203 | 1.7 | 6.1 | 0.00 | 0.00 | 0.00 | 75 | 1007.3 |
| 20260506144515 | 66 | 203 | 0.9 | 6.1 | 0.00 | 0.00 | 0.00 | 75 | 1007.3 |
| 20260506143515 | 66 | 203 | 1.7 | 5.2 | 0.00 | 0.00 | 0.00 | 74 | 1007.4 |
| 20260506142515 | 66 | 225 | 1.7 | 5.2 | 0.00 | 0.00 | 0.00 | 74 | 1007.4 |
| 20260506141516 | 66 | 203 | 1.7 | 7.0 | 0.00 | 0.00 | 0.00 | 73 | 1007.4 |
| 20260506140515 | 65 | 225 | 0.9 | 5.2 | 0.00 | 0.00 | 0.00 | 76 | 1007.4 |
| 20260506135516 | 64 | 225 | 1.7 | 6.1 | 0.00 | 0.00 | 0.00 | 78 | 1007.4 |
| 20260506134515 | 63 | 225 | 1.7 | 5.2 | 0.00 | 0.00 | 0.00 | 79 | 1007.4 |
| 20260506133516 | 64 | 225 | 1.7 | 7.0 | 0.00 | 0.00 | 0.00 | 77 | 1007.5 |
| 20260506132517 | 65 | 225 | 1.7 | 5.2 | 0.00 | 0.00 | 0.00 | 77 | 1007.7 |
| 20260506131517 | 65 | 225 | 1.7 | 6.1 | 0.00 | 0.00 | 0.00 | 77 | 1007.7 |
| 20260506130518 | 65 | 225 | 1.7 | 5.2 | 0.00 | 0.00 | 0.00 | 77 | 1007.7 |
| 20260506125517 | 64 | 203 | 1.7 | 6.1 | 0.00 | 0.00 | 0.00 | 79 | 1007.8 |
| 20260506124518 | 63 | 225 | 2.6 | 7.0 | 0.00 | 0.00 | 0.00 | 81 | 1007.8 |
| 20260506123538 | 62 | 225 | 1.7 | 5.2 | 0.00 | 0.00 | 0.00 | 82 | 1007.8 |
| 20260506122520 | 62 | 225 | 1.7 | 6.1 | 0.00 | 0.00 | 0.00 | 83 | 1007.9 |
| 20260506121604 | 62 | 225 | 0.9 | 4.3 | 0.00 | 0.00 | 0.00 | 84 | 1007.9 |
| 20260506120519 | 61 | 225 | 3.5 | 7.0 | 0.00 | 0.00 | 0.00 | 84 | 1007.6 |
| 20260506115517 | 61 | 225 | 1.7 | 5.2 | 0.00 | 0.00 | 0.00 | 85 | 1007.6 |
| 20260506114518 | 61 | 225 | 2.6 | 6.1 | 0.00 | 0.00 | 0.00 | 86 | 1007.6 |
| 20260506113517 | 60 | 225 | 2.6 | 6.1 | 0.00 | 0.00 | 0.00 | 87 | 1007.6 |
| 20260506112517 | 60 | 225 | 2.6 | 6.1 | 0.00 | 0.00 | 0.00 | 88 | 1007.8 |
| 20260506111517 | 60 | 225 | 0.9 | 2.6 | 0.00 | 0.00 | 0.00 | 89 | 1007.8 |
| 20260506110517 | 59 | 0.0 | 2.6 | 0.00 | 0.00 | 0.00 | 89 | 1007.7 | |
| 20260506105517 | 59 | 225 | 1.7 | 3.5 | 0.00 | 0.00 | 0.00 | 89 | 1007.6 |
| 20260506104541 | 59 | 225 | 1.7 | 4.3 | 0.00 | 0.00 | 0.00 | 90 | 1007.6 |
| 20260506103517 | 59 | 225 | 1.7 | 5.2 | 0.00 | 0.00 | 0.00 | 90 | 1007.5 |
| 20260506102557 | 58 | 225 | 0.9 | 5.2 | 0.00 | 0.00 | 0.00 | 90 | 1007.5 |
| 20260506101517 | 58 | 225 | 0.9 | 6.1 | 0.00 | 0.00 | 0.00 | 90 | 1007.5 |
| 20260506100518 | 58 | 225 | 1.7 | 5.2 | 0.00 | 0.00 | 0.00 | 90 | 1007.5 |
| 20260506095518 | 58 | 225 | 0.9 | 5.2 | 0.00 | 0.00 | 0.00 | 90 | 1007.3 |
| 20260506094517 | 58 | 203 | 1.7 | 7.0 | 0.00 | 0.00 | 0.00 | 90 | 1007.3 |
| 20260506093517 | 58 | 225 | 0.9 | 4.3 | 0.00 | 0.00 | 0.00 | 90 | 1007.3 |
| 20260506092517 | 58 | 225 | 0.9 | 2.6 | 0.00 | 0.00 | 0.00 | 90 | 1007.5 |
| 20260506091538 | 58 | 203 | 1.7 | 4.3 | 0.00 | 0.00 | 0.00 | 89 | 1007.5 |
| 20260506090517 | 58 | 203 | 1.7 | 6.1 | 0.00 | 0.00 | 0.00 | 89 | 1007.6 |
| 20260506085523 | 58 | 203 | 2.6 | 6.1 | 0.00 | 0.00 | 0.00 | 89 | 1007.9 |
| 20260506084538 | 58 | 225 | 2.6 | 5.2 | 0.00 | 0.00 | 0.00 | 89 | 1007.9 |
| 20260506083517 | 58 | 203 | 1.7 | 5.2 | 0.00 | 0.00 | 0.00 | 89 | 1007.9 |
| 20260506082517 | 59 | 203 | 1.7 | 8.7 | 0.00 | 0.00 | 0.00 | 89 | 1007.9 |
| 20260506081517 | 59 | 203 | 0.9 | 3.5 | 0.00 | 0.00 | 0.00 | 89 | 1007.9 |
| 20260506080517 | 59 | 225 | 0.9 | 4.3 | 0.00 | 0.00 | 0.00 | 89 | 1007.8 |
| 20260506073517 | 59 | 225 | 0.9 | 5.2 | 0.00 | 0.00 | 0.00 | 88 | 1007.9 |
| 20260506072518 | 59 | 0.0 | 0.9 | 0.00 | 0.00 | 0.00 | 88 | 1007.9 | |
| 20260506071518 | 59 | 225 | 0.9 | 2.6 | 0.00 | 0.00 | 0.00 | 87 | 1007.9 |
| 20260506070517 | 59 | 225 | 0.9 | 5.2 | 0.00 | 0.00 | 0.00 | 87 | 1008.0 |
| 20260506062517 | 59 | 248 | 1.7 | 8.7 | 0.00 | 0.00 | 0.00 | 86 | 1008.0 |
| 20260506061516 | 59 | 225 | 1.7 | 4.3 | 0.00 | 0.00 | 0.00 | 85 | 1008.0 |
| 20260506060538 | 59 | 225 | 1.7 | 7.0 | 0.00 | 0.00 | 0.00 | 85 | 1008.1 |
| 20260506050517 | 60 | 225 | 2.6 | 8.7 | 0.00 | 0.00 | 0.00 | 82 | 1008.5 |
| 20260506044517 | 60 | 225 | 2.6 | 7.8 | 0.00 | 0.00 | 0.00 | 82 | 1008.5 |
| 20260506043536 | 60 | 225 | 2.6 | 7.8 | 0.00 | 0.00 | 0.00 | 81 | 1008.4 |
| 20260506042516 | 60 | 225 | 2.6 | 8.7 | 0.00 | 0.00 | 0.00 | 81 | 1008.5 |
| 20260506041538 | 60 | 203 | 2.6 | 5.2 | 0.00 | 0.00 | 0.00 | 81 | 1008.5 |
| 20260506040518 | 60 | 225 | 2.6 | 9.6 | 0.00 | 0.00 | 0.00 | 80 | 1008.4 |
| 20260506035517 | 61 | 225 | 2.6 | 8.7 | 0.00 | 0.00 | 0.00 | 80 | 1008.4 |
| 20260506034516 | 61 | 225 | 1.7 | 5.2 | 0.00 | 0.00 | 0.00 | 80 | 1008.4 |
| 20260506033519 | 61 | 225 | 2.6 | 7.0 | 0.00 | 0.00 | 0.00 | 80 | 1008.6 |
| 20260506032517 | 61 | 225 | 2.6 | 7.0 | 0.00 | 0.00 | 0.00 | 80 | 1008.6 |
| 20260506031517 | 61 | 225 | 1.7 | 5.2 | 0.00 | 0.00 | 0.00 | 79 | 1008.6 |
| 20260506030518 | 61 | 248 | 0.9 | 3.5 | 0.00 | 0.00 | 0.00 | 79 | 1008.6 |
| 20260506025517 | 61 | 225 | 2.6 | 6.1 | 0.00 | 0.00 | 0.00 | 78 | 1008.6 |
| 20260506024517 | 61 | 203 | 2.6 | 8.7 | 0.00 | 0.00 | 0.00 | 77 | 1008.6 |
| 20260506023517 | 62 | 225 | 2.6 | 6.1 | 0.00 | 0.00 | 0.00 | 77 | 1008.5 |
| 20260506022518 | 62 | 225 | 2.6 | 8.7 | 0.00 | 0.00 | 0.00 | 76 | 1008.6 |
| 20260506021517 | 62 | 203 | 3.5 | 9.6 | 0.00 | 0.00 | 0.00 | 76 | 1008.6 |
| 20260506020517 | 62 | 225 | 3.5 | 10.4 | 0.00 | 0.00 | 0.00 | 76 | 1008.5 |
| 20260506015526 | 61 | 225 | 3.5 | 8.7 | 0.00 | 0.00 | 0.00 | 76 | 1008.5 |
| 20260506014517 | 61 | 248 | 2.6 | 6.1 | 0.00 | 0.00 | 0.00 | 77 | 1008.5 |
| 20260506013517 | 61 | 225 | 4.3 | 7.8 | 0.00 | 0.00 | 0.00 | 77 | 1008.3 |
| 20260506012517 | 61 | 203 | 4.3 | 10.4 | 0.00 | 0.00 | 0.00 | 78 | 1008.3 |
| 20260506011538 | 60 | 225 | 2.6 | 8.7 | 0.00 | 0.00 | 0.00 | 79 | 1008.3 |
| 20260506010517 | 61 | 225 | 2.6 | 8.7 | 0.00 | 0.00 | 0.00 | 78 | 1008.1 |
| 20260506005517 | 61 | 225 | 2.6 | 8.7 | 0.00 | 0.00 | 0.00 | 78 | 1008.0 |
| 20260506004517 | 61 | 225 | 5.2 | 10.4 | 0.00 | 0.00 | 0.00 | 77 | 1008.0 |
| 20260506003517 | 61 | 225 | 3.5 | 9.6 | 0.00 | 0.00 | 0.00 | 77 | 1008.0 |
| 20260506002517 | 62 | 203 | 2.6 | 7.0 | 0.00 | 0.00 | 0.00 | 77 | 1008.0 |
| 20260506001517 | 62 | 225 | 2.6 | 7.0 | 0.00 | 0.00 | 0.00 | 76 | 1008.0 |
| 20260506000537 | 62 | 225 | 3.5 | 8.7 | 0.00 | 0.00 | 0.00 | 75 | 1007.9 |
| 20260505235517 | 63 | 225 | 2.6 | 7.8 | 0.00 | 0.00 | 0.00 | 73 | 1007.7 |
| 20260505234518 | 64 | 203 | 1.7 | 7.8 | 0.00 | 0.00 | 0.00 | 71 | 1007.7 |
| 20260505233517 | 64 | 225 | 3.5 | 9.6 | 0.00 | 0.00 | 0.00 | 70 | 1007.5 |
| 20260505232518 | 65 | 203 | 5.2 | 10.4 | 0.00 | 0.00 | 0.00 | 68 | 1007.3 |
| 20260505231540 | 65 | 203 | 5.2 | 13.9 | 0.00 | 0.00 | 0.00 | 67 | 1007.3 |
| 20260505230517 | 66 | 225 | 6.1 | 13.9 | 0.00 | 0.00 | 0.00 | 65 | 1007.3 |
| 20260505225517 | 66 | 225 | 4.3 | 9.6 | 0.00 | 0.00 | 0.00 | 64 | 1007.2 |
| 20260505224518 | 66 | 225 | 4.3 | 11.3 | 0.00 | 0.00 | 0.00 | 63 | 1007.2 |
| 20260505223518 | 66 | 225 | 3.5 | 10.4 | 0.00 | 0.00 | 0.00 | 62 | 1007.1 |
| 20260505222517 | 67 | 225 | 4.3 | 10.4 | 0.00 | 0.00 | 0.00 | 62 | 1007.3 |
| 20260505221517 | 66 | 225 | 4.3 | 10.4 | 0.00 | 0.00 | 0.00 | 62 | 1007.3 |
| 20260505220518 | 67 | 203 | 4.3 | 12.2 | 0.00 | 0.00 | 0.00 | 63 | 1007.0 |
| 20260505215517 | 67 | 225 | 4.3 | 11.3 | 0.00 | 0.00 | 0.00 | 62 | 1007.0 |
| 20260505214516 | 67 | 203 | 4.3 | 10.4 | 0.00 | 0.00 | 0.00 | 62 | 1007.0 |
| 20260505213518 | 67 | 203 | 5.2 | 9.6 | 0.00 | 0.00 | 0.00 | 62 | 1006.8 |
| 20260505212517 | 67 | 225 | 3.5 | 9.6 | 0.00 | 0.00 | 0.00 | 61 | 1006.8 |
| 20260505211518 | 67 | 203 | 5.2 | 11.3 | 0.00 | 0.00 | 0.00 | 61 | 1006.8 |
| 20260505210521 | 68 | 203 | 5.2 | 15.6 | 0.00 | 0.00 | 0.00 | 61 | 1006.8 |
| 20260505205517 | 69 | 248 | 4.3 | 10.4 | 0.00 | 0.00 | 0.00 | 60 | 1006.7 |
| 20260505204518 | 69 | 225 | 3.5 | 11.3 | 0.00 | 0.00 | 0.00 | 58 | 1006.7 |
| 20260505203516 | 69 | 203 | 4.3 | 12.2 | 0.00 | 0.00 | 0.00 | 59 | 1006.7 |
| 20260505202516 | 69 | 225 | 3.5 | 12.2 | 0.00 | 0.00 | 0.00 | 58 | 1006.8 |
| 20260505201516 | 69 | 203 | 5.2 | 10.4 | 0.00 | 0.00 | 0.00 | 58 | 1006.8 |
| 20260505200517 | 69 | 225 | 6.1 | 12.2 | 0.00 | 0.00 | 0.00 | 59 | 1006.8 |
| 20260505195516 | 70 | 203 | 5.2 | 12.2 | 0.00 | 0.00 | 0.00 | 58 | 1007.0 |
| 20260505194516 | 70 | 225 | 4.3 | 10.4 | 0.00 | 0.00 | 0.00 | 57 | 1007.0 |
| 20260505193516 | 70 | 203 | 4.3 | 11.3 | 0.00 | 0.00 | 0.00 | 57 | 1007.3 |
| 20260505192516 | 70 | 203 | 4.3 | 11.3 | 0.00 | 0.00 | 0.00 | 57 | 1007.5 |
| 20260505191516 | 70 | 203 | 4.3 | 9.6 | 0.00 | 0.00 | 0.00 | 58 | 1007.5 |
| 20260505190516 | 70 | 203 | 3.5 | 8.7 | 0.00 | 0.00 | 0.00 | 59 | 1007.5 |
| 20260505185516 | 71 | 225 | 4.3 | 11.3 | 0.00 | 0.00 | 0.00 | 58 | 1007.5 |
| 20260505184516 | 72 | 225 | 3.5 | 6.1 | 0.00 | 0.00 | 0.00 | 57 | 1007.5 |
| 20260505183516 | 73 | 225 | 3.5 | 7.8 | 0.00 | 0.00 | 0.00 | 55 | 1007.5 |